Flight Track Log - Related Links

Times and Time Zones

All times are in EDT time to prevent confusion due to time zone crossing. See the N818GM flight status page for this flight to view local times or setup timezone preferences in your user account.


Time Position Orientation Groundspeed Altitude Reporting Facility
EDT Latitude Longitude Course Direction KTS MPH feet Rate Location/Type
Thu 02:34:00 PM 30.3305 -84.0593 130° Southeast  Level FlightAware Approximate
Thu 02:35:00 PM 30.3015 -84.0187 130° Southeast  Level FlightAware Approximate
Thu 02:36:00 PM 30.2737 -83.9771 128° Southeast  Level FlightAware Approximate
Thu 02:37:00 PM 30.2460 -83.9355 128° Southeast  Level FlightAware Approximate
Thu 02:37:14 PM 30.1783 -83.9786 133° Southeast 159 183 6,700  Level Jacksonville Center
Thu 02:38:00 PM 30.2182 -83.8939 128° Southeast  Level FlightAware Approximate
Thu 02:38:14 PM 30.1619 -83.9328 112° Southeast 159 183 6,900  Level Jacksonville Center
Thu 02:39:00 PM 30.1905 -83.8523 128° Southeast  Level FlightAware Approximate
Thu 02:39:14 PM 30.1458 -83.8775 109° East 164 189 7,000  Level Jacksonville Center
Thu 02:40:00 PM 30.1622 -83.8111 133° Southeast  Level FlightAware Approximate
Thu 02:40:14 PM 30.1317 -83.8244 107° East 170 196 7,000  Level Jacksonville Center
Thu 02:41:00 PM 30.1314 -83.7725 133° Southeast  Level FlightAware Approximate
Thu 02:41:14 PM 30.1006 -83.7833 131° Southeast 170 196 7,000  Level Jacksonville Center
Thu 02:42:14 PM 30.0569 -83.7517 148° Southeast 170 196 7,000  Level Jacksonville Center
Thu 02:43:14 PM 30.0197 -83.7153 140° Southeast 177 204 7,000  Level Jacksonville Center
Thu 02:44:14 PM 29.9822 -83.6792 140° Southeast 177 204 7,000  Level Jacksonville Center
Thu 02:45:14 PM 29.9469 -83.6428 138° Southeast 177 204 7,000  Level Jacksonville Center
Thu 02:46:14 PM 29.9094 -83.6092 142° Southeast 177 204 7,000 -50 Level Jacksonville Center
Thu 02:47:14 PM 29.8722 -83.5728 140° Southeast 177 204 6,900  Descending Jacksonville Center
Thu 02:48:14 PM 29.8369 -83.5367 138° Southeast 177 204 7,000 50 Climbing Jacksonville Center
Thu 02:49:14 PM 29.7994 -83.5028 142° Southeast 177 204 7,000  Level Jacksonville Center
Thu 02:50:14 PM 29.7642 -83.4692 140° Southeast 177 204 7,000  Level Jacksonville Center
Thu 02:51:14 PM 29.7289 -83.4356 140° Southeast 172 198 7,000  Level Jacksonville Center
Thu 02:52:14 PM 29.6933 -83.3994 139° Southeast 172 198 7,000  Level Jacksonville Center
Thu 02:53:14 PM 29.6561 -83.3658 142° Southeast 172 198 7,000  Level Jacksonville Center
Thu 02:54:14 PM 29.6206 -83.3297 139° Southeast 172 198 7,000  Level Jacksonville Center
Thu 02:55:14 PM 29.5831 -83.2961 142° Southeast 172 198 7,000  Level Jacksonville Center
Thu 02:56:14 PM 29.5478 -83.2603 139° Southeast 172 198 7,000  Level Jacksonville Center
Thu 02:57:14 PM 29.5103 -83.2242 140° Southeast 172 198 7,000  Level Jacksonville Center
Thu 02:58:14 PM 29.4708 -83.1858 140° Southeast 177 204 7,000  Level Jacksonville Center
Thu 02:59:14 PM 29.4353 -83.1500 139° Southeast 177 204 7,000  Level Jacksonville Center
Thu 03:00:14 PM 29.4061 -83.1239 142° Southeast 177 204 7,000  Level Jacksonville Center
Thu 03:01:14 PM 29.3625 -83.0808 139° Southeast 177 204 7,000  Level Jacksonville Center
Thu 03:01:43 PM 29.3417 -83.0642 145° Southeast 170 196 7,000  Level Jacksonville Center
Thu 03:02:14 PM 29.3269 -83.0450 131° Southeast 177 204 7,000  Level Jacksonville Center
Thu 03:02:25 PM 29.3164 -83.0403 159° South 171 197 7,000  Level Jacksonville Center
Thu 03:03:14 PM 29.2894 -83.0117 137° Southeast 177 204 7,000  Level Jacksonville Center
Thu 03:03:27 PM 29.2811 -83.0069 154° Southeast 172 198 7,000  Level Jacksonville Center
Thu 03:04:14 PM 29.2519 -82.9758 137° Southeast 172 198 7,000  Level Jacksonville Center
Thu 03:04:27 PM 29.2436 -82.9686 143° Southeast 172 198 7,000  Level Jacksonville Center
Thu 03:05:14 PM 29.2164 -82.9400 137° Southeast 172 198 7,000  Level Jacksonville Center
Thu 03:05:28 PM 29.2100 -82.9353 147° Southeast 169 194 7,000  Level Jacksonville Center
Thu 03:06:14 PM 29.1808 -82.9069 140° Southeast 172 198 7,000  Level Jacksonville Center
Thu 03:06:29 PM 29.1706 -82.8972 140° Southeast 170 196 7,000  Level Jacksonville Center
Thu 03:07:14 PM 29.1456 -82.8736 140° Southeast 172 198 7,000  Level Jacksonville Center
Thu 03:07:36 PM 29.1308 -82.8617 145° Southeast 167 192 7,000  Level Jacksonville Center
Thu 03:08:14 PM 29.1078 -82.8378 138° Southeast 172 198 7,000  Level Jacksonville Center
Thu 03:08:37 PM 29.0933 -82.8261 145° Southeast 166 191 7,000  Level Jacksonville Center
Thu 03:09:14 PM 29.0744 -82.8069 138° Southeast 172 198 7,000  Level Jacksonville Center
Thu 03:09:38 PM 29.0578 -82.7953 149° Southeast 163 188 7,000  Level Jacksonville Center
Thu 03:10:14 PM 29.0389 -82.7739 135° Southeast 172 198 7,000  Level Jacksonville Center
Thu 03:10:39 PM 29.0222 -82.7619 148° Southeast 164 189 7,000  Level Jacksonville Center
Thu 03:11:14 PM 29.0033 -82.7406 135° Southeast 172 198 7,000  Level Jacksonville Center
Thu 03:11:40 PM 28.9889 -82.7289 145° Southeast 164 189 7,000  Level Jacksonville Center
Thu 03:12:41 PM 28.9533 -82.6956 141° Southeast 162 186 7,000  Level Jacksonville Center
Thu 03:13:42 PM 28.9156 -82.6600 141° Southeast 163 188 7,000  Level Jacksonville Center
Thu 03:14:37 PM 28.8842 -82.6294 140° Southeast 160 184 7,000  Level Jacksonville Center
Thu 03:15:38 PM 28.8486 -82.5986 143° Southeast 162 186 7,000  Level Jacksonville Center
Thu 03:16:39 PM 28.8153 -82.5656 139° Southeast 162 186 7,000  Level Jacksonville Center
Thu 03:18:28 PM 28.7500 -82.5000 139° Southeast 160 184 7,000  Level Tampa TRACON
Thu 03:19:29 PM 28.7167 -82.4833 156° South 161 185 7,000  Level Tampa TRACON
Thu 03:20:29 PM 28.6667 -82.4500 150° Southeast 162 186 7,000  Level Tampa TRACON
Thu 03:21:29 PM 28.6333 -82.4333 156° South 164 189 7,000  Level Tampa TRACON
Thu 03:22:35 PM 28.6000 -82.4000 139° Southeast 161 185 7,000  Level Tampa TRACON
Thu 03:23:35 PM 28.5667 -82.3667 139° Southeast 160 184 7,000  Level Tampa TRACON
Thu 03:24:35 PM 28.5333 -82.3333 139° Southeast 160 184 7,000  Level Tampa TRACON
Thu 03:25:35 PM 28.4833 -82.3167 164° South 163 188 7,000  Level Tampa TRACON
Thu 03:26:35 PM 28.4500 -82.2833 139° Southeast 162 186 7,000  Level Tampa TRACON
Thu 03:27:35 PM 28.4000 -82.2667 164° South 162 186 7,000  Level Tampa TRACON
Thu 03:28:35 PM 28.3667 -82.2500 156° South 165 190 7,000  Level Tampa TRACON
Thu 03:29:35 PM 28.3167 -82.2500 180° South 162 186 7,000  Level Tampa TRACON
Thu 03:30:35 PM 28.2667 -82.2333 164° South 159 183 7,000  Level Tampa TRACON
Thu 03:31:35 PM 28.2333 -82.2333 180° South 159 183 7,000  Level Tampa TRACON
Thu 03:32:35 PM 28.1833 -82.2333 180° South 161 185 7,000  Level Tampa TRACON
Thu 03:33:35 PM 28.1333 -82.2333 180° South 163 188 7,000  Level Tampa TRACON
Thu 03:34:35 PM 28.1000 -82.2333 180° South 162 186 7,000  Level Tampa TRACON
Thu 03:35:35 PM 28.0500 -82.2333 180° South 162 186 7,000  Level Tampa TRACON
Thu 03:36:35 PM 28.0167 -82.2167 156° South 161 185 7,000  Level Tampa TRACON
Thu 03:37:36 PM 27.9667 -82.2000 164° South 158 182 7,000  Level Tampa TRACON
Thu 03:39:32 PM 27.8806 -82.1817 169° South 151 174 7,000  Level Miami Center
Thu 03:40:32 PM 27.8397 -82.1633 158° South 157 181 7,000  Level Miami Center
Thu 03:41:32 PM 27.7944 -82.1425 158° South 162 186 7,000  Level Miami Center
Thu 03:42:32 PM 27.7594 -82.1292 161° South 167 192 7,000  Level Miami Center
Thu 03:43:32 PM 27.7161 -82.1153 164° South 162 186 7,000  Level Miami Center
Thu 03:44:32 PM 27.6686 -82.1061 170° South 162 186 7,000  Level Miami Center
Thu 03:45:32 PM 27.6228 -82.1017 175° South 163 188 7,000  Level Miami Center
Thu 03:46:32 PM 27.5794 -82.0856 162° South 163 188 7,000  Level Miami Center
Thu 03:47:32 PM 27.5472 -82.0583 143° Southeast 163 188 7,000  Level Miami Center
Thu 03:48:32 PM 27.5106 -82.0311 147° Southeast 163 188 7,000  Level Miami Center
Thu 03:49:32 PM 27.4719 -82.0036 148° Southeast 163 188 7,000  Level Miami Center
Thu 03:50:32 PM 27.4333 -81.9761 148° Southeast 163 188 7,000  Level Miami Center
Thu 03:51:32 PM 27.3944 -81.9511 150° Southeast 163 188 7,000  Level Miami Center
Thu 03:52:32 PM 27.3558 -81.9258 150° Southeast 163 188 7,000  Level Miami Center
Thu 03:53:32 PM 27.3192 -81.8986 147° Southeast 163 188 7,000  Level Miami Center
Thu 03:54:32 PM 27.2847 -81.8644 139° Southeast 168 193 7,000  Level Miami Center
Thu 03:55:32 PM 27.2483 -81.8325 142° Southeast 168 193 7,000  Level Miami Center
Thu 03:56:32 PM 27.2139 -81.8006 140° Southeast 168 193 7,000  Level Miami Center
Thu 03:57:32 PM 27.1794 -81.7689 141° Southeast 168 193 7,000  Level Miami Center
Thu 03:58:32 PM 27.1431 -81.7347 140° Southeast 168 193 7,000  Level Miami Center
Thu 03:59:32 PM 27.1067 -81.7006 140° Southeast 174 200 7,000  Level Miami Center
Thu 04:00:32 PM 27.0722 -81.6686 140° Southeast 174 200 7,000  Level Miami Center
Thu 04:01:32 PM 27.0378 -81.6392 143° Southeast 174 200 7,000  Level Miami Center
Thu 04:02:32 PM 26.9839 -81.6300 171° South 169 194 7,000  Level Miami Center
Thu 04:03:32 PM 26.9381 -81.6236 173° South 169 194 7,000  Level Miami Center
Thu 04:05:00 PM 26.8600 -81.6405 191° South  Level FlightAware Approximate
Thu 04:12:00 PM 26.4867 -81.7167 180° South  Level FlightAware Approximate
Thu 04:13:00 PM 26.4324 -81.7168 189° South  Level FlightAware Approximate
Thu 04:14:00 PM 26.3788 -81.7258 189° South  Level FlightAware Approximate
Thu 04:15:00 PM 26.3252 -81.7347 188° South  Level FlightAware Approximate
Thu 04:16:00 PM 26.2716 -81.7436 188° South  Level FlightAware Approximate
Thu 04:17:00 PM 26.2180 -81.7531 190° South  Level FlightAware Approximate
Thu 04:18:00 PM 26.1647 -81.7637 190° South  Level FlightAware Approximate
Thu 04:19:00 PM 26.1500 -81.7667 190° South  Level FlightAware Approximate
Thu 04:20:00 PM 26.1524 -81.7756 190° South  Level Estimated
Thu 04:21:00 PM 26.1524 -81.7756 190° South  Level Estimated
Thu 04:22:00 PM 26.1524 -81.7756 190° South  Level Estimated
Thu 04:23:00 PM 26.1524 -81.7756 190° South  Level Estimated
Thu 04:24:00 PM 26.1524 -81.7756 190° South  Level Estimated
Thu 04:25:00 PM 26.1524 -81.7756 190° South  Level Estimated
Thu 04:26:00 PM 26.1524 -81.7756 190° South  Level Estimated
Thu 04:27:00 PM 26.1524 -81.7756 190° South  Level Estimated
Thu 04:28:00 PM 26.1524 -81.7756 190° South  Level Estimated

Login

Don't have an account? Register now (free) for customized features, flight alerts, and more!